Time;durP1;ratioP1;P1;durP2;ratioP2;P2;SDS_P1;SDS_P2;PMS_P1;PMS_P2;Temp;Humidity;BMP_temperature;BMP_pressure;BME280_temperature;BME280_humidity;BME280_pressure;Samples;Min_cycle;Max_cycle;Signal;HPM_P1;HPM_P2
2022/04/26 03:37:05;;;;;;;16.47;15.07;;;14.40;39.80;;;;;;10263910;28;20397;-75
2022/04/26 03:42:09;;;;;;;16.23;14.83;;;14.40;39.50;;;;;;10261859;28;20240;-75
2022/04/26 03:47:13;;;;;;;13.97;12.83;;;14.40;39.60;;;;;;10258565;28;20247;-75
2022/04/26 03:52:16;;;;;;;15.67;14.37;;;14.30;39.60;;;;;;10259374;28;20236;-76
2022/04/26 03:57:20;;;;;;;15.00;13.70;;;14.30;39.60;;;;;;10259858;28;20605;-75
2022/04/26 04:02:24;;;;;;;15.27;13.87;;;14.40;39.70;;;;;;10257361;28;20243;-75
2022/04/26 04:07:28;;;;;;;14.73;13.43;;;14.30;40.10;;;;;;10259514;28;20227;-75
2022/04/26 04:12:31;;;;;;;16.27;14.87;;;14.40;39.80;;;;;;10255545;28;20248;-75
2022/04/26 04:17:36;;;;;;;15.00;13.77;;;14.30;39.70;;;;;;10264807;28;20235;-75
2022/04/26 04:22:39;;;;;;;17.00;15.50;;;14.30;40.10;;;;;;10258626;28;20228;-75
2022/04/26 04:27:42;;;;;;;17.80;16.30;;;14.30;39.90;;;;;;10258533;28;20605;-79
2022/04/26 04:32:47;;;;;;;17.37;15.90;;;14.30;40.00;;;;;;10256864;28;20252;-78
2022/04/26 04:37:50;;;;;;;16.53;15.03;;;14.30;40.30;;;;;;10267482;28;20726;-79
2022/04/26 04:42:53;;;;;;;16.03;14.70;;;14.20;40.10;;;;;;10267319;28;20231;-78
2022/04/26 04:47:58;;;;;;;17.47;16.07;;;14.20;40.10;;;;;;10267511;28;20228;-78
2022/04/26 04:53:01;;;;;;;18.77;17.17;;;14.20;40.70;;;;;;10272085;28;20791;-78
2022/04/26 04:58:04;;;;;;;18.57;16.87;;;14.10;40.40;;;;;;10270940;28;20232;-78
2022/04/26 05:03:09;;;;;;;16.73;15.23;;;14.10;40.50;;;;;;10266861;28;20228;-79
2022/04/26 05:08:13;;;;;;;16.43;14.93;;;14.10;41.00;;;;;;10273364;28;20239;-78
2022/04/26 05:13:16;;;;;;;17.77;16.17;;;14.10;40.80;;;;;;10269047;28;20236;-79
2022/04/26 05:18:22;;;;;;;16.77;15.27;;;14.10;41.00;;;;;;10264202;28;20232;-79
2022/04/26 05:28:46;;;;;;;15.83;14.43;;;14.20;41.00;;;;;;10275966;28;20322;-80
2022/04/26 05:33:51;;;;;;;15.83;14.43;;;14.20;40.90;;;;;;10255727;28;20272;-80
2022/04/26 05:38:55;;;;;;;20.97;19.07;;;14.30;41.40;;;;;;10258541;28;20311;-79
2022/04/26 05:43:59;;;;;;;19.93;18.03;;;14.30;41.10;;;;;;10270293;28;20231;-79
2022/04/26 05:49:04;;;;;;;21.00;19.03;;;14.30;41.30;;;;;;10263915;28;20239;-79
2022/04/26 05:54:07;;;;;;;18.70;16.93;;;14.30;41.60;;;;;;10268932;28;20243;-79
2022/04/26 05:59:11;;;;;;;20.57;18.70;;;14.30;41.10;;;;;;10268410;28;20692;-79
2022/04/26 06:04:16;;;;;;;21.73;19.83;;;14.30;41.60;;;;;;10264402;28;20234;-80
2022/04/26 06:09:19;;;;;;;20.70;18.80;;;14.30;41.80;;;;;;10265954;28;20227;-79
2022/04/26 06:14:22;;;;;;;22.00;20.10;;;14.20;41.20;;;;;;10266951;28;20240;-80
2022/04/26 06:19:27;;;;;;;21.50;19.53;;;14.20;41.50;;;;;;10261089;28;20236;-79
2022/04/26 06:24:33;;;;;;;24.20;22.03;;;14.20;42.10;;;;;;10267868;28;20235;-80
2022/04/26 06:29:37;;;;;;;21.97;20.07;;;14.20;42.80;;;;;;10267601;28;20315;-80
2022/04/26 06:34:41;;;;;;;22.13;20.13;;;14.20;42.00;;;;;;10266546;28;20228;-80
2022/04/26 06:39:44;;;;;;;20.33;18.53;;;14.20;42.40;;;;;;10270671;28;20240;-79
2022/04/26 06:44:48;;;;;;;20.13;18.33;;;14.20;42.00;;;;;;10276177;28;20243;-79
2022/04/26 06:49:52;;;;;;;19.77;18.10;;;14.20;41.90;;;;;;10274087;28;20234;-79
2022/04/26 06:54:56;;;;;;;18.27;16.57;;;14.20;42.20;;;;;;10271582;28;20227;-79
2022/04/26 06:59:59;;;;;;;18.03;16.40;;;14.20;42.40;;;;;;10282078;28;20245;-80
2022/04/26 07:05:04;;;;;;;16.60;15.10;;;14.20;42.40;;;;;;10288184;28;20231;-79
2022/04/26 07:10:08;;;;;;;15.63;14.23;;;14.30;43.10;;;;;;10285682;28;20232;-79
2022/04/26 07:15:12;;;;;;;13.20;12.10;;;14.20;42.90;;;;;;10285132;28;20246;-79
2022/04/26 07:20:16;;;;;;;13.10;11.90;;;14.30;42.60;;;;;;10286801;28;20239;-79
2022/04/26 07:25:19;;;;;;;12.73;11.63;;;14.30;43.30;;;;;;10284347;28;20323;-79
2022/04/26 07:30:23;;;;;;;12.10;11.10;;;14.40;42.60;;;;;;10291543;28;20235;-79
2022/04/26 07:35:28;;;;;;;10.33;9.53;;;14.40;42.70;;;;;;10283156;28;20240;-80
2022/04/26 07:40:32;;;;;;;9.47;8.67;;;14.40;42.70;;;;;;10287675;28;20324;-79
2022/04/26 07:45:37;;;;;;;11.07;10.13;;;14.50;42.90;;;;;;10286051;28;20982;-79
2022/04/26 07:50:42;;;;;;;10.60;9.70;;;14.50;43.00;;;;;;10287747;28;20290;-79
2022/04/26 07:55:45;;;;;;;10.33;9.53;;;14.60;43.20;;;;;;10287826;28;20603;-79
2022/04/26 08:00:48;;;;;;;9.00;8.20;;;14.60;42.70;;;;;;10289834;28;20231;-79
2022/04/26 08:05:53;;;;;;;8.77;8.17;;;14.70;42.40;;;;;;10284578;28;20286;-79
2022/04/26 08:10:56;;;;;;;7.93;7.33;;;14.80;42.50;;;;;;10280594;28;20657;-79
2022/04/26 08:15:59;;;;;;;8.27;7.67;;;14.80;42.20;;;;;;10281131;28;20236;-79
2022/04/26 08:21:07;;;;;;;7.17;6.67;;;14.80;42.20;;;;;;10284565;28;20346;-79
2022/04/26 08:31:30;;;;;;;6.70;6.20;;;15.00;42.00;;;;;;10280134;28;20230;-79
2022/04/26 08:36:35;;;;;;;6.87;6.27;;;15.00;42.60;;;;;;10280910;28;20235;-79
2022/04/26 08:41:38;;;;;;;6.03;5.53;;;15.10;42.10;;;;;;10270052;28;20223;-79
2022/04/26 08:52:06;;;;;;;6.00;5.57;;;15.20;41.60;;;;;;10251322;28;20235;-79
2022/04/26 08:57:09;;;;;;;5.27;4.90;;;15.30;41.90;;;;;;10284731;28;20246;-79
2022/04/26 09:02:18;;;;;;;5.17;4.80;;;15.30;41.40;;;;;;10276744;28;20709;-79
2022/04/26 09:07:31;;;;;;;5.13;4.77;;;15.40;41.40;;;;;;10277762;28;20251;-79
2022/04/26 09:12:55;;;;;;;5.10;4.70;;;15.40;41.50;;;;;;10273938;28;20616;-79
2022/04/26 09:18:24;;;;;;;5.00;4.60;;;15.50;41.00;;;;;;10277004;28;20235;-79
2022/04/26 09:23:32;;;;;;;5.03;4.73;;;15.50;41.00;;;;;;10271038;28;20251;-79
2022/04/26 09:28:37;;;;;;;5.23;4.83;;;15.50;40.90;;;;;;10270042;28;20318;-79
2022/04/26 09:33:47;;;;;;;5.23;4.83;;;15.50;40.90;;;;;;10275574;28;20266;-79
2022/04/26 09:38:53;;;;;;;5.30;4.90;;;15.60;40.90;;;;;;10268636;28;20229;-79
2022/04/26 09:43:58;;;;;;;5.37;4.97;;;15.60;41.00;;;;;;10277403;28;20318;-79
2022/04/26 09:49:06;;;;;;;5.10;4.70;;;15.70;40.70;;;;;;10275833;28;20311;-79
2022/04/26 09:54:11;;;;;;;5.30;4.80;;;15.80;39.90;;;;;;10271103;28;20277;-79
2022/04/26 09:59:16;;;;;;;4.50;4.10;;;15.70;40.20;;;;;;10268927;28;20246;-79
2022/04/26 10:04:22;;;;;;;4.67;4.37;;;15.70;40.50;;;;;;10273999;28;20242;-79
2022/04/26 10:09:27;;;;;;;4.33;4.03;;;15.70;40.50;;;;;;10271560;28;20246;-79
2022/04/26 10:14:31;;;;;;;4.17;3.87;;;15.80;40.50;;;;;;10289706;23;20314;-73
2022/04/26 10:19:39;;;;;;;4.30;4.00;;;15.80;40.20;;;;;;10260056;28;20227;-76
2022/04/26 10:25:09;;;;;;;3.53;3.33;;;15.80;39.90;;;;;;10266171;28;20250;-76
2022/04/26 10:30:12;;;;;;;4.60;4.30;;;15.80;40.10;;;;;;10267661;28;20283;-76
2022/04/26 10:35:31;;;;;;;4.57;4.27;;;15.90;40.00;;;;;;10254736;28;20231;-76
2022/04/26 10:41:09;;;;;;;4.40;4.10;;;15.90;40.00;;;;;;10256112;28;20223;-76
2022/04/26 10:46:14;;;;;;;3.70;3.50;;;15.90;40.10;;;;;;10252408;28;20283;-76
2022/04/26 10:51:33;;;;;;;3.67;3.47;;;15.90;40.20;;;;;;10259756;28;20242;-76
2022/04/26 10:56:38;;;;;;;3.47;3.27;;;15.90;39.60;;;;;;10255926;28;20752;-73
2022/04/26 11:01:43;;;;;;;3.23;3.03;;;15.90;39.70;;;;;;10258093;28;20263;-73
2022/04/26 11:06:47;;;;;;;3.83;3.53;;;15.80;39.50;;;;;;10253821;28;20720;-75
2022/04/26 11:11:55;;;;;;;4.93;4.43;;;15.80;39.60;;;;;;10259071;28;20620;-75
2022/04/26 11:17:00;;;;;;;5.33;4.93;;;15.60;39.70;;;;;;10250441;28;20259;-75
2022/04/26 11:22:07;;;;;;;5.10;4.40;;;15.30;39.60;;;;;;10246443;28;20945;-76
2022/04/26 11:32:34;;;;;;;3.33;3.13;;;14.90;40.40;;;;;;10252979;28;20238;-76
2022/04/26 11:37:44;;;;;;;3.60;3.40;;;14.70;40.50;;;;;;10249470;28;20612;-75
2022/04/26 11:42:49;;;;;;;3.60;3.40;;;14.60;41.70;;;;;;10240701;28;20239;-76
2022/04/26 11:47:52;;;;;;;3.20;3.00;;;14.50;41.30;;;;;;10246773;28;20231;-75
2022/04/26 11:53:02;;;;;;;3.47;3.27;;;14.40;41.20;;;;;;10251328;28;20232;-75
2022/04/26 11:58:16;;;;;;;3.23;3.03;;;14.40;41.30;;;;;;10250081;28;20232;-77
2022/04/26 12:03:20;;;;;;;3.00;2.80;;;14.30;42.40;;;;;;10252963;28;20220;-76
2022/04/26 12:08:24;;;;;;;3.30;3.10;;;14.30;41.40;;;;;;10252756;28;20250;-76
2022/04/26 12:13:31;;;;;;;3.50;3.20;;;14.40;41.40;;;;;;10254041;28;20240;-77
2022/04/26 12:18:34;;;;;;;3.40;3.20;;;14.30;41.80;;;;;;10255664;28;20247;-74
2022/04/26 12:23:38;;;;;;;3.77;3.47;;;14.40;41.80;;;;;;10259425;28;20232;-77
2022/04/26 12:28:52;;;;;;;3.70;3.43;;;14.40;41.60;;;;;;10267333;28;20243;-76
2022/04/26 12:39:13;;;;;;;3.57;3.37;;;14.60;41.60;;;;;;10262234;28;20238;-73
2022/04/26 12:44:18;;;;;;;2.97;2.77;;;14.60;41.30;;;;;;10249058;28;20243;-75
2022/04/26 12:54:55;;;;;;;2.77;2.57;;;14.50;41.20;;;;;;10257136;28;20235;-75
2022/04/26 12:59:59;;;;;;;2.60;2.40;;;14.40;41.50;;;;;;10249249;28;20235;-72
2022/04/26 13:05:02;;;;;;;3.47;3.17;;;14.40;41.30;;;;;;10249800;28;20232;-75
2022/04/26 13:10:07;;;;;;;3.50;3.30;;;14.40;41.20;;;;;;10250702;28;20231;-74
2022/04/26 13:15:15;;;;;;;3.63;3.43;;;14.40;41.60;;;;;;10253523;28;20232;-75
2022/04/26 13:20:19;;;;;;;4.17;3.87;;;14.30;42.10;;;;;;10254571;28;20697;-75
2022/04/26 13:25:22;;;;;;;4.60;3.40;;;14.30;41.60;;;;;;10241766;28;20732;-74
2022/04/26 13:30:27;;;;;;;3.40;3.20;;;14.30;41.50;;;;;;10259660;28;20233;-74
2022/04/26 13:35:30;;;;;;;3.73;3.43;;;14.20;41.90;;;;;;10260328;28;20236;-73
2022/04/26 13:40:34;;;;;;;3.40;3.20;;;14.20;41.90;;;;;;10257500;28;20234;-76
2022/04/26 13:45:39;;;;;;;3.70;3.40;;;14.20;41.70;;;;;;10257766;28;20254;-75
2022/04/26 13:50:46;;;;;;;3.53;3.30;;;14.30;42.40;;;;;;10260243;28;20236;-75
2022/04/26 13:55:49;;;;;;;4.20;3.80;;;14.30;42.10;;;;;;10261965;28;20267;-76
2022/04/26 14:00:54;;;;;;;4.30;4.00;;;14.40;42.00;;;;;;10258872;28;20231;-76
2022/04/26 14:05:58;;;;;;;4.20;3.90;;;14.40;42.20;;;;;;10254917;28;20617;-73
2022/04/26 14:11:01;;;;;;;4.20;3.90;;;14.40;41.90;;;;;;10255013;28;20240;-74
2022/04/26 14:26:49;;;;;;;4.43;4.13;;;14.30;41.90;;;;;;10260879;28;20239;-74
2022/04/26 14:31:53;;;;;;;4.23;3.93;;;14.30;42.10;;;;;;10252774;28;20464;-74
2022/04/26 14:36:58;;;;;;;4.33;4.03;;;14.30;42.20;;;;;;10253631;28;20244;-74
2022/04/26 14:42:02;;;;;;;4.43;4.13;;;14.30;42.50;;;;;;10248414;28;20315;-74
2022/04/26 14:47:07;;;;;;;5.53;4.57;;;14.40;42.40;;;;;;10255750;28;20241;-74
2022/04/26 14:52:14;;;;;;;6.20;5.53;;;14.60;42.70;;;;;;10253353;28;20254;-74
2022/04/26 14:57:32;;;;;;;6.53;6.03;;;14.60;41.90;;;;;;10254156;28;20741;-74
2022/04/26 15:02:40;;;;;;;6.17;5.63;;;14.60;42.20;;;;;;10251805;28;20235;-74
2022/04/26 15:18:25;;;;;;;4.80;4.40;;;14.50;42.00;;;;;;10254292;28;20235;-74
2022/04/26 15:23:29;;;;;;;4.97;4.47;;;14.40;41.90;;;;;;10266887;28;20239;-74
2022/04/26 15:28:32;;;;;;;4.97;4.57;;;14.40;41.90;;;;;;10261832;28;20243;-74
2022/04/26 15:33:36;;;;;;;5.40;4.90;;;14.40;41.70;;;;;;10263478;28;20243;-74
2022/04/26 15:38:40;;;;;;;5.00;4.47;;;14.30;41.90;;;;;;10264992;28;20242;-78
2022/04/26 15:43:44;;;;;;;5.17;4.77;;;14.20;41.50;;;;;;10261166;28;20239;-78
2022/04/26 15:49:09;;;;;;;5.23;4.73;;;14.10;41.70;;;;;;10266695;28;20270;-77
2022/04/26 15:54:14;;;;;;;5.20;4.80;;;13.90;41.60;;;;;;10266396;28;20242;-74
2022/04/26 15:59:17;;;;;;;5.13;4.67;;;13.90;42.00;;;;;;10264106;28;20236;-74
2022/04/26 16:04:22;;;;;;;4.73;4.43;;;13.90;42.30;;;;;;10271013;28;20798;-78
2022/04/26 16:20:32;;;;;;;4.93;4.10;;;14.00;42.00;;;;;;10262863;28;20719;-78
2022/04/26 16:25:35;;;;;;;4.13;3.80;;;14.10;41.50;;;;;;10262667;28;20789;-78
2022/04/26 16:30:41;;;;;;;3.53;3.23;;;14.10;40.90;;;;;;10263870;28;20314;-78
2022/04/26 16:35:46;;;;;;;3.87;3.47;;;14.20;40.70;;;;;;10261956;28;20288;-78
2022/04/26 16:40:50;;;;;;;4.37;3.90;;;14.20;40.00;;;;;;10260943;28;20259;-77
2022/04/26 16:45:53;;;;;;;4.20;3.50;;;14.20;39.80;;;;;;10265304;28;20295;-78
2022/04/26 16:51:01;;;;;;;4.40;4.10;;;14.20;39.70;;;;;;10268262;28;20252;-78
2022/04/26 16:56:05;;;;;;;3.63;3.40;;;14.10;40.10;;;;;;10260229;28;20227;-78
2022/04/26 17:01:09;;;;;;;3.60;3.30;;;14.10;39.50;;;;;;10264727;28;20228;-77
2022/04/26 17:06:14;;;;;;;3.50;3.20;;;14.00;39.50;;;;;;10262339;28;20267;-78
2022/04/26 17:16:39;;;;;;;3.03;2.83;;;14.10;39.80;;;;;;10267441;28;20587;-78
2022/04/26 17:21:54;;;;;;;3.00;2.80;;;14.10;39.70;;;;;;10269560;28;20231;-77
2022/04/26 17:58:35;;;;;;;4.00;3.70;;;14.50;38.80;;;;;;10199368;23;20234;-75
2022/04/26 18:03:39;;;;;;;3.57;3.37;;;14.40;38.50;;;;;;10319811;28;20854;-76
2022/04/26 18:08:43;;;;;;;3.50;3.30;;;14.40;39.00;;;;;;10309303;28;20612;-75
2022/04/26 18:13:52;;;;;;;3.60;3.30;;;14.40;39.00;;;;;;10309206;28;20835;-75
2022/04/26 18:18:57;;;;;;;3.20;3.00;;;14.40;38.90;;;;;;10348841;28;20287;-75
2022/04/26 18:24:00;;;;;;;12.37;11.27;;;14.40;38.80;;;;;;10281048;28;20253;-73
2022/04/26 18:29:05;;;;;;;3.80;3.50;;;14.40;38.90;;;;;;10286170;28;21192;-75
2022/04/26 18:34:08;;;;;;;2.80;2.60;;;14.30;39.70;;;;;;10301850;28;20669;-75
2022/04/26 18:39:12;;;;;;;2.77;2.57;;;14.30;38.80;;;;;;10289651;28;20323;-74
2022/04/26 18:44:19;;;;;;;2.67;2.47;;;14.20;38.40;;;;;;10308919;28;20242;-75
2022/04/26 18:49:28;;;;;;;3.40;3.20;;;14.10;38.40;;;;;;10302422;28;20315;-74
2022/04/26 18:54:31;;;;;;;5.60;5.20;;;14.00;38.40;;;;;;10300290;28;20277;-74
2022/04/26 18:59:38;;;;;;;7.57;7.00;;;13.90;38.40;;;;;;10319124;28;20730;-74
2022/04/26 19:04:41;;;;;;;6.70;6.20;;;13.70;38.30;;;;;;10295980;28;20322;-74
2022/04/26 19:15:03;;;;;;;4.30;4.00;;;13.60;38.80;;;;;;10322037;28;20609;-74
2022/04/26 19:20:09;;;;;;;4.73;3.70;;;13.60;38.80;;;;;;10318232;28;20310;-74
2022/04/26 19:25:12;;;;;;;8.90;7.43;;;13.60;38.70;;;;;;10282146;28;20832;-75
2022/04/26 19:30:16;;;;;;;7.77;7.07;;;13.50;38.60;;;;;;10282025;28;20326;-74
2022/04/26 19:35:20;;;;;;;11.43;7.93;;;13.50;38.70;;;;;;10281427;28;20249;-75
2022/04/26 19:40:24;;;;;;;27.47;15.17;;;13.40;38.40;;;;;;10281260;28;20231;-75
2022/04/26 19:45:29;;;;;;;12.70;9.53;;;13.40;38.40;;;;;;10281577;28;20235;-74
2022/04/26 19:55:52;;;;;;;8.20;6.87;;;13.20;38.10;;;;;;10280942;28;20232;-75
2022/04/26 20:00:57;;;;;;;32.10;17.47;;;13.10;38.30;;;;;;10294016;28;20230;-74
2022/04/26 20:06:00;;;;;;;32.20;17.33;;;13.10;38.10;;;;;;10317196;28;20326;-75
2022/04/26 20:11:04;;;;;;;139.67;49.03;;;13.00;38.20;;;;;;10310055;28;20255;-74
2022/04/26 20:16:08;;;;;;;66.17;29.17;;;12.90;37.90;;;;;;10296461;28;20235;-74
2022/04/26 20:21:12;;;;;;;27.23;17.33;;;12.80;38.00;;;;;;10308151;28;20231;-74
2022/04/26 20:31:37;;;;;;;4.80;4.40;;;12.60;37.90;;;;;;10324681;28;20241;-74
2022/04/26 20:36:42;;;;;;;5.30;4.80;;;12.60;37.60;;;;;;10324176;28;20290;-74
2022/04/26 20:41:46;;;;;;;3.97;3.67;;;12.40;37.60;;;;;;10324158;28;20242;-74
2022/04/26 20:46:50;;;;;;;49.17;25.70;;;12.30;37.60;;;;;;10323971;28;20306;-74
2022/04/26 20:51:54;;;;;;;107.23;49.40;;;12.20;37.70;;;;;;10323558;28;20322;-74
2022/04/26 20:57:01;;;;;;;48.77;25.80;;;12.10;37.80;;;;;;10323407;28;20243;-74
2022/04/26 21:02:06;;;;;;;36.70;19.97;;;11.90;38.00;;;;;;10323204;28;20572;-74
2022/04/26 21:07:09;;;;;;;36.53;21.70;;;11.80;38.20;;;;;;10323784;28;20246;-74
2022/04/26 21:12:12;;;;;;;28.00;17.57;;;11.70;38.50;;;;;;10323534;28;20265;-74
2022/04/26 21:17:17;;;;;;;19.73;13.23;;;11.70;38.80;;;;;;10322636;28;20235;-74
2022/04/26 21:22:21;;;;;;;14.00;10.83;;;11.70;38.80;;;;;;10323412;28;20235;-74
2022/04/26 21:27:24;;;;;;;14.40;10.53;;;11.70;38.50;;;;;;10324572;28;20729;-74
2022/04/26 21:32:29;;;;;;;22.37;16.23;;;11.60;38.30;;;;;;10323297;28;20238;-74
2022/04/26 21:37:33;;;;;;;16.67;13.87;;;11.50;38.60;;;;;;10323822;28;20236;-74
2022/04/26 21:42:38;;;;;;;12.77;10.70;;;11.40;38.60;;;;;;10324430;28;20259;-74
2022/04/26 21:47:42;;;;;;;11.20;9.87;;;11.30;38.70;;;;;;10324842;28;20314;-74
2022/04/26 21:52:46;;;;;;;8.67;7.77;;;11.10;38.80;;;;;;10324490;28;20239;-74
2022/04/26 21:57:49;;;;;;;6.73;6.13;;;11.10;38.80;;;;;;10324213;28;20234;-74
2022/04/26 22:02:53;;;;;;;6.17;5.67;;;11.00;38.90;;;;;;10324033;28;20886;-74
2022/04/26 22:07:57;;;;;;;6.67;6.07;;;10.90;39.40;;;;;;10324048;28;20703;-74
2022/04/26 22:13:01;;;;;;;7.30;6.60;;;10.80;39.30;;;;;;10324270;28;20760;-73
2022/04/26 22:18:06;;;;;;;6.80;6.20;;;10.80;39.50;;;;;;10324096;28;20309;-74
2022/04/26 22:23:09;;;;;;;10.13;8.23;;;10.80;39.60;;;;;;10348278;23;20613;-72
2022/04/26 22:33:32;;;;;;;15.43;9.53;;;10.80;39.30;;;;;;10416268;23;20230;-72
2022/04/26 22:38:35;;;;;;;9.47;7.63;;;10.80;39.10;;;;;;10322282;28;20897;-72
2022/04/26 22:43:40;;;;;;;6.70;6.10;;;10.80;39.00;;;;;;10331509;28;20673;-72
2022/04/26 22:48:45;;;;;;;6.00;5.50;;;10.80;38.90;;;;;;10434224;23;20239;-74
2022/04/26 22:53:48;;;;;;;6.07;5.57;;;10.60;39.00;;;;;;10281039;28;20239;-74
2022/04/26 22:58:51;;;;;;;4.97;4.50;;;10.60;39.10;;;;;;10280141;28;20295;-73
2022/04/26 23:03:56;;;;;;;4.43;4.13;;;10.50;39.10;;;;;;10281465;28;20234;-74
2022/04/26 23:08:59;;;;;;;4.47;4.17;;;10.40;39.40;;;;;;10282496;28;20279;-74
2022/04/26 23:14:02;;;;;;;5.03;4.53;;;10.30;39.30;;;;;;10282463;28;20239;-74
2022/04/26 23:19:07;;;;;;;4.67;4.27;;;10.30;39.30;;;;;;10282665;28;20240;-74
2022/04/26 23:24:13;;;;;;;5.10;4.60;;;10.20;39.50;;;;;;10282759;28;20250;-74
2022/04/26 23:29:16;;;;;;;4.70;4.30;;;10.20;39.60;;;;;;10282603;28;20251;-74
2022/04/26 23:39:41;;;;;;;4.37;3.97;;;10.10;39.50;;;;;;10283565;28;20227;-73
2022/04/26 23:44:44;;;;;;;4.47;4.07;;;10.10;39.40;;;;;;10289901;28;20720;-73
2022/04/26 23:49:48;;;;;;;4.60;4.20;;;10.00;39.40;;;;;;10289815;28;20239;-73
2022/04/26 23:54:52;;;;;;;3.77;3.43;;;10.10;39.30;;;;;;10288004;28;20232;-73
2022/04/26 23:59:55;;;;;;;3.67;3.37;;;10.00;39.10;;;;;;10288977;28;20227;-73
